sensor_id;sensor_type;location;lat;lon;timestamp;temperature;humidity
31975;DHT22;18500;43.618;1.474;2023-03-01T07:19:06;-2.70;1.00
31975;DHT22;18500;43.618;1.474;2023-03-01T07:21:32;-2.70;1.00
31975;DHT22;18500;43.618;1.474;2023-03-01T07:23:57;-2.50;1.00
31975;DHT22;18500;43.618;1.474;2023-03-01T07:26:23;-2.40;1.00
31975;DHT22;18500;43.618;1.474;2023-03-01T07:28:49;-2.40;1.00
31975;DHT22;18500;43.618;1.474;2023-03-01T07:31:14;-2.30;1.00
31975;DHT22;18500;43.618;1.474;2023-03-01T07:33:40;-2.20;1.00
31975;DHT22;18500;43.618;1.474;2023-03-01T07:36:06;-2.10;1.00
31975;DHT22;18500;43.618;1.474;2023-03-01T07:38:32;-2.10;1.00
31975;DHT22;18500;43.618;1.474;2023-03-01T07:40:59;-2.10;1.00
31975;DHT22;18500;43.618;1.474;2023-03-01T07:43:26;-2.00;1.00
31975;DHT22;18500;43.618;1.474;2023-03-01T07:45:52;-2.00;1.00
31975;DHT22;18500;43.618;1.474;2023-03-01T07:48:17;-2.00;1.00
31975;DHT22;18500;43.618;1.474;2023-03-01T07:50:43;-1.90;1.00
31975;DHT22;18500;43.618;1.474;2023-03-01T07:53:09;-1.90;1.00
31975;DHT22;18500;43.618;1.474;2023-03-01T07:55:36;-1.80;1.00
31975;DHT22;18500;43.618;1.474;2023-03-01T07:58:01;-1.70;1.00
31975;DHT22;18500;43.618;1.474;2023-03-01T08:00:27;-1.60;1.00
31975;DHT22;18500;43.618;1.474;2023-03-01T08:02:53;-1.40;1.00
31975;DHT22;18500;43.618;1.474;2023-03-01T08:05:18;-1.40;1.00
31975;DHT22;18500;43.618;1.474;2023-03-01T08:07:44;-1.30;1.00
31975;DHT22;18500;43.618;1.474;2023-03-01T08:10:10;-1.10;1.00
31975;DHT22;18500;43.618;1.474;2023-03-01T08:12:36;-1.10;1.00
31975;DHT22;18500;43.618;1.474;2023-03-01T08:15:01;-1.00;1.00
31975;DHT22;18500;43.618;1.474;2023-03-01T08:17:27;-0.90;1.00
31975;DHT22;18500;43.618;1.474;2023-03-01T08:19:53;-0.80;1.00
31975;DHT22;18500;43.618;1.474;2023-03-01T08:22:18;-0.70;1.00
31975;DHT22;18500;43.618;1.474;2023-03-01T08:24:44;-0.70;1.00
31975;DHT22;18500;43.618;1.474;2023-03-01T08:27:09;-0.60;1.00
31975;DHT22;18500;43.618;1.474;2023-03-01T08:29:37;-0.40;1.00
31975;DHT22;18500;43.618;1.474;2023-03-01T08:32:03;-0.20;1.00
31975;DHT22;18500;43.618;1.474;2023-03-01T08:34:29;-0.10;1.00
31975;DHT22;18500;43.618;1.474;2023-03-01T08:36:56;0.00;1.00
31975;DHT22;18500;43.618;1.474;2023-03-01T08:39:22;0.10;1.00
31975;DHT22;18500;43.618;1.474;2023-03-01T08:41:48;0.40;1.00
31975;DHT22;18500;43.618;1.474;2023-03-01T08:44:15;0.60;1.00
31975;DHT22;18500;43.618;1.474;2023-03-01T08:46:42;0.80;1.00
31975;DHT22;18500;43.618;1.474;2023-03-01T08:49:12;1.00;1.00
31975;DHT22;18500;43.618;1.474;2023-03-01T08:51:38;1.30;1.00
31975;DHT22;18500;43.618;1.474;2023-03-01T08:54:09;1.30;1.00
31975;DHT22;18500;43.618;1.474;2023-03-01T08:56:36;1.40;1.00
31975;DHT22;18500;43.618;1.474;2023-03-01T08:59:02;1.40;1.00
31975;DHT22;18500;43.618;1.474;2023-03-01T09:01:28;1.40;1.00
31975;DHT22;18500;43.618;1.474;2023-03-01T09:03:53;1.50;1.00
31975;DHT22;18500;43.618;1.474;2023-03-01T09:06:19;1.50;1.00
31975;DHT22;18500;43.618;1.474;2023-03-01T09:08:47;1.60;1.00
31975;DHT22;18500;43.618;1.474;2023-03-01T09:11:16;1.60;1.00
31975;DHT22;18500;43.618;1.474;2023-03-01T09:13:44;1.30;1.00
31975;DHT22;18500;43.618;1.474;2023-03-01T09:16:11;1.70;1.00
31975;DHT22;18500;43.618;1.474;2023-03-01T09:18:38;1.70;1.00
31975;DHT22;18500;43.618;1.474;2023-03-01T09:21:15;1.80;1.00
31975;DHT22;18500;43.618;1.474;2023-03-01T09:23:43;2.10;1.00
31975;DHT22;18500;43.618;1.474;2023-03-01T09:26:11;2.20;1.00
31975;DHT22;18500;43.618;1.474;2023-03-01T09:28:37;2.30;1.00
31975;DHT22;18500;43.618;1.474;2023-03-01T09:31:04;2.10;1.00
31975;DHT22;18500;43.618;1.474;2023-03-01T09:33:31;2.10;1.00
31975;DHT22;18500;43.618;1.474;2023-03-01T09:36:03;2.10;1.00
31975;DHT22;18500;43.618;1.474;2023-03-01T09:38:29;2.50;1.00
31975;DHT22;18500;43.618;1.474;2023-03-01T09:40:55;2.50;1.00
31975;DHT22;18500;43.618;1.474;2023-03-01T09:45:53;2.40;1.00
31975;DHT22;18500;43.618;1.474;2023-03-01T09:48:22;2.70;1.00
31975;DHT22;18500;43.618;1.474;2023-03-01T09:50:49;2.80;1.00
31975;DHT22;18500;43.618;1.474;2023-03-01T09:53:22;2.90;1.00
31975;DHT22;18500;43.618;1.474;2023-03-01T09:56:01;2.90;1.00
31975;DHT22;18500;43.618;1.474;2023-03-01T09:58:36;2.90;1.00
31975;DHT22;18500;43.618;1.474;2023-03-01T10:04:35;3.20;1.00
31975;DHT22;18500;43.618;1.474;2023-03-01T10:09:33;3.90;1.00
31975;DHT22;18500;43.618;1.474;2023-03-01T10:12:00;3.80;1.00
31975;DHT22;18500;43.618;1.474;2023-03-01T10:18:04;4.00;1.00
31975;DHT22;18500;43.618;1.474;2023-03-01T10:20:58;4.00;1.00
31975;DHT22;18500;43.618;1.474;2023-03-01T10:23:26;4.10;1.00
31975;DHT22;18500;43.618;1.474;2023-03-01T10:26:08;4.10;1.00
31975;DHT22;18500;43.618;1.474;2023-03-01T10:29:13;4.00;1.00
31975;DHT22;18500;43.618;1.474;2023-03-01T10:31:52;4.00;1.00
31975;DHT22;18500;43.618;1.474;2023-03-01T10:34:34;4.20;1.00
31975;DHT22;18500;43.618;1.474;2023-03-01T10:37:10;4.40;1.00
31975;DHT22;18500;43.618;1.474;2023-03-01T10:39:36;4.40;1.00
31975;DHT22;18500;43.618;1.474;2023-03-01T10:42:04;4.70;1.00
31975;DHT22;18500;43.618;1.474;2023-03-01T10:44:46;4.60;1.00
31975;DHT22;18500;43.618;1.474;2023-03-01T10:47:26;4.70;1.00
31975;DHT22;18500;43.618;1.474;2023-03-01T10:50:01;4.70;1.00
31975;DHT22;18500;43.618;1.474;2023-03-01T10:52:30;4.60;1.00
31975;DHT22;18500;43.618;1.474;2023-03-01T10:57:46;4.50;1.00
31975;DHT22;18500;43.618;1.474;2023-03-01T11:00:17;4.50;1.00
31975;DHT22;18500;43.618;1.474;2023-03-01T11:02:47;4.70;1.00
31975;DHT22;18500;43.618;1.474;2023-03-01T11:07:53;4.50;1.00
31975;DHT22;18500;43.618;1.474;2023-03-01T11:10:22;4.60;1.00
31975;DHT22;18500;43.618;1.474;2023-03-01T11:12:49;4.50;1.00
31975;DHT22;18500;43.618;1.474;2023-03-01T11:15:25;4.50;1.00
31975;DHT22;18500;43.618;1.474;2023-03-01T11:17:51;4.70;1.00
31975;DHT22;18500;43.618;1.474;2023-03-01T11:20:34;4.50;1.00
31975;DHT22;18500;43.618;1.474;2023-03-01T11:23:12;4.90;1.00
31975;DHT22;18500;43.618;1.474;2023-03-01T11:26:02;4.80;1.00
31975;DHT22;18500;43.618;1.474;2023-03-01T11:28:30;5.00;1.00
31975;DHT22;18500;43.618;1.474;2023-03-01T11:31:00;5.10;1.00
31975;DHT22;18500;43.618;1.474;2023-03-01T11:33:54;5.40;1.00
31975;DHT22;18500;43.618;1.474;2023-03-01T11:36:32;5.50;1.00
31975;DHT22;18500;43.618;1.474;2023-03-01T11:41:56;5.60;1.00
31975;DHT22;18500;43.618;1.474;2023-03-01T11:44:28;5.60;1.00
31975;DHT22;18500;43.618;1.474;2023-03-01T12:00:17;5.80;1.00
31975;DHT22;18500;43.618;1.474;2023-03-01T12:06:05;5.80;1.00
31975;DHT22;18500;43.618;1.474;2023-03-01T12:39:32;6.30;1.00
31975;DHT22;18500;43.618;1.474;2023-03-01T12:42:56;7.40;1.00
31975;DHT22;18500;43.618;1.474;2023-03-01T12:45:43;10.30;1.00
31975;DHT22;18500;43.618;1.474;2023-03-01T12:48:38;13.30;1.00
31975;DHT22;18500;43.618;1.474;2023-03-01T12:51:09;14.60;1.00
31975;DHT22;18500;43.618;1.474;2023-03-01T12:53:46;16.70;1.00
31975;DHT22;18500;43.618;1.474;2023-03-01T12:56:17;17.20;1.00
31975;DHT22;18500;43.618;1.474;2023-03-01T13:07:14;16.40;1.00
31975;DHT22;18500;43.618;1.474;2023-03-01T13:17:51;14.60;1.00
31975;DHT22;18500;43.618;1.474;2023-03-01T13:20:24;15.00;1.00
31975;DHT22;18500;43.618;1.474;2023-03-01T13:23:02;15.10;1.00
31975;DHT22;18500;43.618;1.474;2023-03-01T13:25:28;16.90;1.00
31975;DHT22;18500;43.618;1.474;2023-03-01T13:30:58;16.80;1.00
31975;DHT22;18500;43.618;1.474;2023-03-01T13:35:57;10.30;1.00
31975;DHT22;18500;43.618;1.474;2023-03-01T13:38:55;8.30;1.00
31975;DHT22;18500;43.618;1.474;2023-03-01T13:44:32;8.30;1.00
31975;DHT22;18500;43.618;1.474;2023-03-01T13:54:58;8.00;1.00
31975;DHT22;18500;43.618;1.474;2023-03-01T13:57:30;8.20;1.00
31975;DHT22;18500;43.618;1.474;2023-03-01T13:59:58;7.80;1.00
31975;DHT22;18500;43.618;1.474;2023-03-01T14:02:23;8.10;1.00
31975;DHT22;18500;43.618;1.474;2023-03-01T14:04:59;8.40;1.00
31975;DHT22;18500;43.618;1.474;2023-03-01T14:07:26;8.30;1.00
31975;DHT22;18500;43.618;1.474;2023-03-01T14:10:03;8.60;1.00
31975;DHT22;18500;43.618;1.474;2023-03-01T14:15:24;8.60;1.00
31975;DHT22;18500;43.618;1.474;2023-03-01T14:18:12;8.40;1.00
31975;DHT22;18500;43.618;1.474;2023-03-01T14:20:42;8.40;1.00
31975;DHT22;18500;43.618;1.474;2023-03-01T14:23:13;8.10;1.00
31975;DHT22;18500;43.618;1.474;2023-03-01T14:25:48;8.20;1.00
31975;DHT22;18500;43.618;1.474;2023-03-01T14:28:21;8.40;1.00
31975;DHT22;18500;43.618;1.474;2023-03-01T14:30:50;8.40;1.00
31975;DHT22;18500;43.618;1.474;2023-03-01T14:33:29;8.60;1.00
31975;DHT22;18500;43.618;1.474;2023-03-01T14:38:40;8.60;1.00
31975;DHT22;18500;43.618;1.474;2023-03-01T14:41:18;8.40;1.00
31975;DHT22;18500;43.618;1.474;2023-03-01T14:43:50;8.00;1.00
31975;DHT22;18500;43.618;1.474;2023-03-01T14:48:56;8.00;1.00
31975;DHT22;18500;43.618;1.474;2023-03-01T14:51:24;7.50;1.00
31975;DHT22;18500;43.618;1.474;2023-03-01T14:53:50;7.70;1.00
31975;DHT22;18500;43.618;1.474;2023-03-01T14:56:17;7.50;1.00
31975;DHT22;18500;43.618;1.474;2023-03-01T14:58:44;7.70;1.00
31975;DHT22;18500;43.618;1.474;2023-03-01T15:01:14;7.90;1.00
31975;DHT22;18500;43.618;1.474;2023-03-01T15:03:46;7.90;1.00
31975;DHT22;18500;43.618;1.474;2023-03-01T15:06:18;8.00;1.00
31975;DHT22;18500;43.618;1.474;2023-03-01T15:08:47;8.00;1.00
31975;DHT22;18500;43.618;1.474;2023-03-01T15:13:40;7.90;1.00
31975;DHT22;18500;43.618;1.474;2023-03-01T15:16:27;7.40;1.00
31975;DHT22;18500;43.618;1.474;2023-03-01T15:18:57;7.40;1.00
31975;DHT22;18500;43.618;1.474;2023-03-01T15:21:35;7.20;1.00
31975;DHT22;18500;43.618;1.474;2023-03-01T15:26:54;7.70;1.00
31975;DHT22;18500;43.618;1.474;2023-03-01T15:29:25;7.80;1.00
31975;DHT22;18500;43.618;1.474;2023-03-01T15:32:00;8.20;1.00
31975;DHT22;18500;43.618;1.474;2023-03-01T15:34:29;7.70;1.00
31975;DHT22;18500;43.618;1.474;2023-03-01T15:36:57;7.60;1.00
31975;DHT22;18500;43.618;1.474;2023-03-01T15:39:43;7.70;1.00
31975;DHT22;18500;43.618;1.474;2023-03-01T15:47:48;7.80;1.00
31975;DHT22;18500;43.618;1.474;2023-03-01T15:50:22;7.80;1.00
31975;DHT22;18500;43.618;1.474;2023-03-01T15:52:48;7.60;1.00
31975;DHT22;18500;43.618;1.474;2023-03-01T15:57:42;7.50;1.00
31975;DHT22;18500;43.618;1.474;2023-03-01T16:00:11;7.80;1.00
31975;DHT22;18500;43.618;1.474;2023-03-01T16:02:39;7.80;1.00
31975;DHT22;18500;43.618;1.474;2023-03-01T16:05:08;7.40;1.00
31975;DHT22;18500;43.618;1.474;2023-03-01T16:07:40;7.40;1.00
31975;DHT22;18500;43.618;1.474;2023-03-01T16:10:05;7.60;1.00
31975;DHT22;18500;43.618;1.474;2023-03-01T16:12:31;7.40;1.00
31975;DHT22;18500;43.618;1.474;2023-03-01T16:14:57;7.60;1.00
31975;DHT22;18500;43.618;1.474;2023-03-01T16:17:23;7.60;1.00
31975;DHT22;18500;43.618;1.474;2023-03-01T16:19:48;7.60;1.00
31975;DHT22;18500;43.618;1.474;2023-03-01T16:22:14;7.50;1.00
31975;DHT22;18500;43.618;1.474;2023-03-01T16:24:39;7.30;1.00
31975;DHT22;18500;43.618;1.474;2023-03-01T16:27:06;7.10;1.00
31975;DHT22;18500;43.618;1.474;2023-03-01T16:29:32;7.00;1.00
31975;DHT22;18500;43.618;1.474;2023-03-01T16:32:00;7.10;1.00
31975;DHT22;18500;43.618;1.474;2023-03-01T16:34:26;7.20;1.00
31975;DHT22;18500;43.618;1.474;2023-03-01T16:36:52;7.20;1.00
31975;DHT22;18500;43.618;1.474;2023-03-01T16:39:17;7.00;1.00
31975;DHT22;18500;43.618;1.474;2023-03-01T16:41:43;7.10;1.00
31975;DHT22;18500;43.618;1.474;2023-03-01T16:44:09;7.00;1.00
31975;DHT22;18500;43.618;1.474;2023-03-01T16:46:35;6.80;1.00
31975;DHT22;18500;43.618;1.474;2023-03-01T16:49:01;6.60;1.00
31975;DHT22;18500;43.618;1.474;2023-03-01T16:51:26;6.40;1.00
31975;DHT22;18500;43.618;1.474;2023-03-01T16:53:52;6.30;1.00
31975;DHT22;18500;43.618;1.474;2023-03-01T16:56:18;6.20;1.00
31975;DHT22;18500;43.618;1.474;2023-03-01T16:58:44;6.00;1.00
31975;DHT22;18500;43.618;1.474;2023-03-01T17:01:12;6.00;1.00
31975;DHT22;18500;43.618;1.474;2023-03-01T17:03:39;6.00;1.00
31975;DHT22;18500;43.618;1.474;2023-03-01T17:06:08;6.00;1.00
31975;DHT22;18500;43.618;1.474;2023-03-01T17:08:34;5.90;1.00
31975;DHT22;18500;43.618;1.474;2023-03-01T17:13:30;5.70;1.00
31975;DHT22;18500;43.618;1.474;2023-03-01T17:15:55;5.50;1.00
31975;DHT22;18500;43.618;1.474;2023-03-01T17:18:21;5.60;1.00
31975;DHT22;18500;43.618;1.474;2023-03-01T17:20:47;5.70;1.00
31975;DHT22;18500;43.618;1.474;2023-03-01T17:23:12;5.40;1.00
31975;DHT22;18500;43.618;1.474;2023-03-01T17:25:42;5.30;1.00
31975;DHT22;18500;43.618;1.474;2023-03-01T17:28:10;5.10;1.00
31975;DHT22;18500;43.618;1.474;2023-03-01T17:30:35;5.00;1.00
31975;DHT22;18500;43.618;1.474;2023-03-01T17:33:01;5.20;1.00
31975;DHT22;18500;43.618;1.474;2023-03-01T17:35:26;5.40;1.00
31975;DHT22;18500;43.618;1.474;2023-03-01T17:37:52;5.40;1.00
31975;DHT22;18500;43.618;1.474;2023-03-01T17:40:18;5.40;1.00
31975;DHT22;18500;43.618;1.474;2023-03-01T17:42:43;5.40;1.00
31975;DHT22;18500;43.618;1.474;2023-03-01T17:45:09;5.40;1.00
31975;DHT22;18500;43.618;1.474;2023-03-01T17:47:35;5.40;1.00
31975;DHT22;18500;43.618;1.474;2023-03-01T17:50:01;5.40;1.00
31975;DHT22;18500;43.618;1.474;2023-03-01T17:52:28;5.20;1.00
31975;DHT22;18500;43.618;1.474;2023-03-01T17:54:53;5.00;1.00
31975;DHT22;18500;43.618;1.474;2023-03-01T17:57:19;4.70;1.00
31975;DHT22;18500;43.618;1.474;2023-03-01T17:59:45;4.60;1.00
31975;DHT22;18500;43.618;1.474;2023-03-01T18:02:12;4.80;1.00
31975;DHT22;18500;43.618;1.474;2023-03-01T18:04:37;5.00;1.00
31975;DHT22;18500;43.618;1.474;2023-03-01T18:07:03;5.00;1.00
31975;DHT22;18500;43.618;1.474;2023-03-01T18:09:29;5.10;1.00
31975;DHT22;18500;43.618;1.474;2023-03-01T18:11:55;5.10;1.00
31975;DHT22;18500;43.618;1.474;2023-03-01T18:14:21;5.20;1.00
31975;DHT22;18500;43.618;1.474;2023-03-01T18:16:46;5.10;1.00
31975;DHT22;18500;43.618;1.474;2023-03-01T18:19:12;5.00;1.00
31975;DHT22;18500;43.618;1.474;2023-03-01T18:21:38;4.90;1.00
31975;DHT22;18500;43.618;1.474;2023-03-01T18:24:04;4.90;1.00
31975;DHT22;18500;43.618;1.474;2023-03-01T18:26:29;5.00;1.00
31975;DHT22;18500;43.618;1.474;2023-03-01T18:28:55;4.90;1.00
31975;DHT22;18500;43.618;1.474;2023-03-01T18:31:23;4.90;1.00
31975;DHT22;18500;43.618;1.474;2023-03-01T18:33:52;5.00;1.00
31975;DHT22;18500;43.618;1.474;2023-03-01T18:36:28;5.10;1.00
31975;DHT22;18500;43.618;1.474;2023-03-01T18:38:54;5.10;1.00
31975;DHT22;18500;43.618;1.474;2023-03-01T18:41:22;5.10;1.00
31975;DHT22;18500;43.618;1.474;2023-03-01T18:43:48;4.90;1.00
31975;DHT22;18500;43.618;1.474;2023-03-01T18:46:13;4.80;1.00
31975;DHT22;18500;43.618;1.474;2023-03-01T18:48:39;4.90;1.00
31975;DHT22;18500;43.618;1.474;2023-03-01T18:51:14;4.80;1.00
31975;DHT22;18500;43.618;1.474;2023-03-01T18:53:40;4.70;1.00
31975;DHT22;18500;43.618;1.474;2023-03-01T18:56:07;4.80;1.00
31975;DHT22;18500;43.618;1.474;2023-03-01T18:58:33;4.70;1.00
31975;DHT22;18500;43.618;1.474;2023-03-01T19:00:59;4.70;1.00
31975;DHT22;18500;43.618;1.474;2023-03-01T19:03:31;4.60;1.00
31975;DHT22;18500;43.618;1.474;2023-03-01T19:05:57;4.70;1.00
31975;DHT22;18500;43.618;1.474;2023-03-01T19:08:25;4.70;1.00
31975;DHT22;18500;43.618;1.474;2023-03-01T19:10:58;4.50;1.00
31975;DHT22;18500;43.618;1.474;2023-03-01T19:13:25;4.40;1.00
31975;DHT22;18500;43.618;1.474;2023-03-01T19:15:51;4.40;1.00
31975;DHT22;18500;43.618;1.474;2023-03-01T19:18:17;4.30;1.00
31975;DHT22;18500;43.618;1.474;2023-03-01T19:20:43;4.20;1.00
31975;DHT22;18500;43.618;1.474;2023-03-01T19:23:08;4.10;1.00
31975;DHT22;18500;43.618;1.474;2023-03-01T19:25:34;4.20;1.00
31975;DHT22;18500;43.618;1.474;2023-03-01T19:28:00;4.20;1.00
31975;DHT22;18500;43.618;1.474;2023-03-01T19:30:26;4.10;1.00
31975;DHT22;18500;43.618;1.474;2023-03-01T19:32:52;4.10;1.00
31975;DHT22;18500;43.618;1.474;2023-03-01T19:35:18;4.00;1.00
31975;DHT22;18500;43.618;1.474;2023-03-01T19:37:44;4.20;1.00
31975;DHT22;18500;43.618;1.474;2023-03-01T19:40:10;4.20;1.00
31975;DHT22;18500;43.618;1.474;2023-03-01T19:42:36;4.10;1.00
31975;DHT22;18500;43.618;1.474;2023-03-01T19:45:02;4.00;1.00
31975;DHT22;18500;43.618;1.474;2023-03-01T19:47:27;4.10;1.00
31975;DHT22;18500;43.618;1.474;2023-03-01T19:49:53;4.10;1.00
31975;DHT22;18500;43.618;1.474;2023-03-01T19:52:18;4.10;1.00
31975;DHT22;18500;43.618;1.474;2023-03-01T19:54:44;4.10;1.00
31975;DHT22;18500;43.618;1.474;2023-03-01T19:57:11;4.00;1.00
31975;DHT22;18500;43.618;1.474;2023-03-01T19:59:36;3.90;1.00
31975;DHT22;18500;43.618;1.474;2023-03-01T20:02:02;4.00;1.00
31975;DHT22;18500;43.618;1.474;2023-03-01T20:04:28;4.10;1.00
31975;DHT22;18500;43.618;1.474;2023-03-01T20:06:54;4.10;1.00
31975;DHT22;18500;43.618;1.474;2023-03-01T20:09:19;4.10;1.00
31975;DHT22;18500;43.618;1.474;2023-03-01T20:11:45;4.00;1.00
31975;DHT22;18500;43.618;1.474;2023-03-01T20:14:11;3.90;1.00
31975;DHT22;18500;43.618;1.474;2023-03-01T20:16:38;3.70;1.00
31975;DHT22;18500;43.618;1.474;2023-03-01T20:19:04;3.90;1.00
31975;DHT22;18500;43.618;1.474;2023-03-01T20:21:30;3.90;1.00
31975;DHT22;18500;43.618;1.474;2023-03-01T20:23:57;4.00;1.00
31975;DHT22;18500;43.618;1.474;2023-03-01T20:26:23;4.00;1.00
31975;DHT22;18500;43.618;1.474;2023-03-01T20:28:52;3.90;1.00
31975;DHT22;18500;43.618;1.474;2023-03-01T20:31:20;3.60;1.00
31975;DHT22;18500;43.618;1.474;2023-03-01T20:33:46;3.70;1.00
31975;DHT22;18500;43.618;1.474;2023-03-01T20:36:11;3.90;1.00
31975;DHT22;18500;43.618;1.474;2023-03-01T20:38:37;3.80;1.00
31975;DHT22;18500;43.618;1.474;2023-03-01T20:41:05;3.90;1.00
31975;DHT22;18500;43.618;1.474;2023-03-01T20:43:32;3.80;1.00
31975;DHT22;18500;43.618;1.474;2023-03-01T20:45:59;3.70;1.00
31975;DHT22;18500;43.618;1.474;2023-03-01T20:48:27;3.80;1.00
31975;DHT22;18500;43.618;1.474;2023-03-01T20:50:52;3.80;1.00
31975;DHT22;18500;43.618;1.474;2023-03-01T20:53:18;3.70;1.00
31975;DHT22;18500;43.618;1.474;2023-03-01T20:55:43;3.70;1.00
31975;DHT22;18500;43.618;1.474;2023-03-01T20:58:09;3.80;1.00
31975;DHT22;18500;43.618;1.474;2023-03-01T21:00:35;3.70;1.00
31975;DHT22;18500;43.618;1.474;2023-03-01T21:03:01;3.60;1.00
31975;DHT22;18500;43.618;1.474;2023-03-01T21:05:28;3.60;1.00
31975;DHT22;18500;43.618;1.474;2023-03-01T21:07:54;3.50;1.00
31975;DHT22;18500;43.618;1.474;2023-03-01T21:10:19;3.50;1.00
31975;DHT22;18500;43.618;1.474;2023-03-01T21:12:45;3.40;1.00
31975;DHT22;18500;43.618;1.474;2023-03-01T21:15:11;3.50;1.00
31975;DHT22;18500;43.618;1.474;2023-03-01T21:17:36;3.60;1.00
31975;DHT22;18500;43.618;1.474;2023-03-01T21:20:02;3.60;1.00
31975;DHT22;18500;43.618;1.474;2023-03-01T21:22:29;3.50;1.00
31975;DHT22;18500;43.618;1.474;2023-03-01T21:24:57;3.50;1.00
31975;DHT22;18500;43.618;1.474;2023-03-01T21:27:23;3.60;1.00
31975;DHT22;18500;43.618;1.474;2023-03-01T21:29:48;3.60;1.00
31975;DHT22;18500;43.618;1.474;2023-03-01T21:32:15;3.60;1.00
31975;DHT22;18500;43.618;1.474;2023-03-01T21:34:41;3.60;1.00
31975;DHT22;18500;43.618;1.474;2023-03-01T21:37:08;3.50;1.00
31975;DHT22;18500;43.618;1.474;2023-03-01T21:39:35;3.50;1.00
31975;DHT22;18500;43.618;1.474;2023-03-01T21:42:02;3.40;1.00
31975;DHT22;18500;43.618;1.474;2023-03-01T21:44:30;3.40;1.00
31975;DHT22;18500;43.618;1.474;2023-03-01T21:46:56;3.40;1.00
31975;DHT22;18500;43.618;1.474;2023-03-01T21:49:24;3.50;1.00
31975;DHT22;18500;43.618;1.474;2023-03-01T21:51:49;3.40;1.00
31975;DHT22;18500;43.618;1.474;2023-03-01T21:54:17;3.30;1.00
31975;DHT22;18500;43.618;1.474;2023-03-01T21:56:45;3.30;1.00
31975;DHT22;18500;43.618;1.474;2023-03-01T21:59:22;3.30;1.00
31975;DHT22;18500;43.618;1.474;2023-03-01T22:01:48;3.40;1.00
31975;DHT22;18500;43.618;1.474;2023-03-01T22:04:15;3.40;1.00
31975;DHT22;18500;43.618;1.474;2023-03-01T22:06:44;3.30;1.00
31975;DHT22;18500;43.618;1.474;2023-03-01T22:09:16;3.20;1.00
31975;DHT22;18500;43.618;1.474;2023-03-01T22:11:45;3.20;1.00
31975;DHT22;18500;43.618;1.474;2023-03-01T22:14:11;3.10;1.00
31975;DHT22;18500;43.618;1.474;2023-03-01T22:16:38;3.10;1.00
31975;DHT22;18500;43.618;1.474;2023-03-01T22:19:06;3.10;1.00
